Portada
METAR-TAF:

METAR-TAF

Aeroports :

Nakashibetsu, Japó

latitud: 43-34N, longitud: 144-58E, altitud: 66 m

Observació

L'informe es va fer fa 6 hores i 23 minuts, a les 09:00 UTC
Vent 16 kt del Oest/Sud-Oest
Temperatura 15°C
Humitat 44%
Pressió 1010 hPa
Visibilitat 10 km o més
sense núvols per sota de 1500 mi sense presència de cumulonimbus.

METAR: RJCN 220900Z 24016KT CAVOK 15/03 Q1010

Hora: 00:23 (15:23 UTC)


TAF: manca

Observacions i pronòstics meteorològics de més de 4000 aeroports (METAR i TAF).

Les estacions disponibles són els punts grocs i vermells al mapa.

Posi el ratolí al punt desitjat per veure el nom de l'estació.

Feu clic per veure les observacions i els pronòstics meteorològics.

Per canviar el mapa: feu clic els botons verds amb una creu de color negre per apropar; al botó verd amb un guió per allunyar la imatge; o en les fletxes verdes per a mapes adjacents.


METAR-TAF: